Data for 08/17/2014

Time Sea-Level Adjusted Pressure Absolute Pressure Temperature Relative Humidity Dew Point   
(mb) (inHg) (mb) (inHg) (C) (F) (%) (C) (F)
00:05 1022 30.18 851 25.13 14.8 58.7 60 7.2 44.9
00:10 1022 30.18 851 25.13 14.7 58.5 60 7.2 45
00:15 1022 30.18 851 25.13 14.7 58.5 61 7.3 45.2
00:20 1022 30.18 851 25.13 14.8 58.6 60 7.2 45
00:25 1022 30.18 851 25.13 14.5 58.1 61 7.2 45
00:30 1022 30.18 851 25.13 14.3 57.8 62 7.1 44.8
00:35 1022 30.18 851 25.13 14.2 57.6 62 7.2 45
00:40 1022 30.18 851 25.13 13.9 57 64 7.3 45.1
00:45 1022 30.18 851 25.13 13.6 56.5 65 7.1 44.8
00:50 1022 30.18 851 25.13 13.5 56.2 64 6.9 44.4
00:55 1022 30.18 851 25.13 13.4 56.2 65 7 44.5
01:00 1022 30.18 851 25.13 13.5 56.3 64 6.9 44.5
01:05 1022 30.18 851 25.13 13.6 56.4 64 6.9 44.3
01:10 1022 30.18 851 25.13 13.6 56.4 64 7 44.6
01:15 1022 30.18 851 25.13 13.6 56.5 63 6.8 44.2
01:20 1022 30.18 851 25.13 13.7 56.6 63 6.7 44.1
01:25 1022 30.18 851 25.13 13.6 56.5 63 6.8 44.2
01:30 1022 30.18 851 25.13 13.6 56.5 62 6.6 43.9
01:35 1022 30.18 851 25.13 13.7 56.7 63 6.8 44.2
01:40 1022 30.18 851 25.13 13.6 56.5 62 6.5 43.7
01:45 1022 30.18 851 25.13 13.6 56.4 62 6.5 43.6
01:50 1022 30.18 851 25.13 13.5 56.4 61 6.3 43.4
01:55 1022 30.18 851 25.13 13.6 56.5 60 6.1 42.9
02:00 1022 30.18 851 25.13 13.9 57 59 6 42.9
02:05 1022 30.18 851 25.13 14 57.2 58 6 42.7
02:10 1022 30.18 851 25.13 14 57.2 60 6.4 43.4
02:15 1022 30.18 851 25.13 13.6 56.5 62 6.4 43.6
02:20 1022 30.18 851 25.13 13.4 56 63 6.5 43.7
02:25 1022 30.18 851 25.13 13.3 55.9 63 6.5 43.8
02:30 1022 30.18 851 25.13 13.1 55.6 65 6.8 44.3
02:35 1022 30.18 851 25.13 12.8 55.1 64 6.2 43.2
02:40 1022 30.18 851 25.13 13.1 55.5 62 6 42.7
02:45 1022 30.18 851 25.13 13.5 56.4 61 6.3 43.4
02:50 1022 30.18 851 25.13 13.9 57 60 6.4 43.6
02:55 1022 30.18 851 25.13 13.7 56.7 63 6.9 44.3
03:00 1022 30.18 851 25.13 13.4 56.2 64 6.8 44.3
03:05 1022 30.18 851 25.13 13.3 55.9 65 7 44.5
03:10 1022 30.18 851 25.13 12.7 54.9 69 7.1 44.8
03:15 1022 30.18 851 25.13 12.5 54.4 67 6.6 43.9
03:20 1022 30.18 851 25.13 12.7 54.9 66 6.5 43.7
03:25 1022 30.18 851 25.13 12.8 55.1 66 6.6 43.9
03:30 1022 30.18 851 25.13 12.8 55.1 66 6.7 44
03:35 1022 30.18 851 25.13 12.7 54.9 65 6.5 43.6
03:40 1022 30.18 851 25.13 12.7 54.9 65 6.4 43.6
03:45 1022 30.18 851 25.13 12.9 55.2 65 6.5 43.6
03:50 1022 30.18 851 25.13 12.8 55.1 65 6.5 43.7
03:55 1022 30.18 851 25.13 12.8 55.1 65 6.4 43.6
04:00 1022 30.18 851 25.13 12.7 54.8 65 6.4 43.6
04:05 1022 30.18 851 25.13 12.7 54.8 65 6.3 43.3
04:10 1022 30.18 851 25.13 12.6 54.6 65 6.3 43.3
04:15 1022 30.18 852 25.16 12.6 54.7 65 6.2 43.2
04:20 1022 30.18 852 25.16 12.5 54.5 65 6.2 43.2
04:25 1022 30.18 852 25.16 12.6 54.6 64 6.1 43
04:30 1022 30.18 852 25.16 12.7 54.8 64 6.2 43.2
04:35 1022 30.18 852 25.16 12.6 54.8 64 6.2 43.1
04:40 1022 30.18 852 25.16 12.7 54.8 64 6.1 43
04:45 1022 30.18 852 25.16 13 55.3 63 6.2 43.2
04:50 1022 30.18 852 25.16 13 55.4 63 6.2 43.1
04:55 1022 30.18 852 25.16 13.1 55.5 63 6.3 43.4
05:00 1022 30.18 852 25.16 13.1 55.6 64 6.4 43.6
05:05 1022 30.18 852 25.16 13.1 55.6 63 6.4 43.5
05:10 1023 30.21 852 25.16 13.1 55.6 64 6.6 43.9
05:15 1023 30.21 852 25.16 12.9 55.2 66 6.8 44.3
05:20 1022 30.18 852 25.16 12.8 55 64 6.3 43.3
05:25 1022 30.18 852 25.16 12.8 55.1 64 6.3 43.3
05:30 1022 30.18 852 25.16 12.9 55.2 64 6.3 43.3
05:35 1022 30.18 852 25.16 12.9 55.2 64 6.4 43.5
05:40 1023 30.21 852 25.16 13.1 55.5 62 6.1 42.9
05:45 1023 30.21 852 25.16 13.4 56.1 61 6.2 43.1
05:50 1023 30.21 852 25.16 13.7 56.7 61 6.4 43.4
05:55 1022 30.18 852 25.16 13.8 56.8 62 6.6 43.9
06:00 1022 30.18 852 25.16 13.7 56.6 62 6.7 44
06:05 1023 30.21 852 25.16 13.5 56.2 65 7 44.6
06:10 1023 30.21 852 25.16 13.2 55.7 65 6.9 44.4
06:15 1023 30.21 852 25.16 13 55.3 68 7.2 45
06:20 1023 30.21 852 25.16 12.7 54.8 68 7 44.6
06:25 1023 30.21 852 25.16 12.5 54.5 68 6.9 44.4
06:30 1023 30.21 852 25.16 12.5 54.5 67 6.5 43.6
06:35 1023 30.21 852 25.16 12.7 54.9 67 6.8 44.2
06:40 1023 30.21 852 25.16 13 55.3 66 6.9 44.4
06:45 1023 30.21 852 25.16 13 55.4 67 7.1 44.8
06:50 1023 30.21 852 25.16 13.3 56 67 7.5 45.5
06:55 1023 30.21 852 25.16 13.6 56.4 65 7.1 44.7
07:00 1023 30.21 852 25.16 13.7 56.7 62 6.7 44
07:05 1023 30.21 852 25.16 14.1 57.3 62 6.9 44.4
07:10 1023 30.21 852 25.16 14.7 58.4 59 6.7 44.1
07:15 1023 30.21 852 25.16 15.2 59.4 58 7 44.6
07:20 1023 30.21 852 25.16 15.4 59.8 56 6.7 44.1
07:25 1023 30.21 852 25.16 15.9 60.6 55 6.9 44.4
07:30 1023 30.21 852 25.16 16.3 61.4 53 6.8 44.2
07:35 1023 30.21 852 25.16 16.2 61.2 52 6.5 43.7
07:40 1023 30.21 852 25.16 16.1 60.9 55 7.1 44.7
07:45 1023 30.21 852 25.16 15.9 60.6 55 6.9 44.4
07:50 1023 30.21 852 25.16 16.6 61.8 52 6.8 44.3
07:55 1023 30.21 852 25.16 17.1 62.8 53 7.4 45.4
08:00 1023 30.21 852 25.16 16.9 62.4 52 7 44.6
08:05 1023 30.21 852 25.16 16.9 62.4 52 7 44.5
08:10 1023 30.21 852 25.16 17.4 63.3 49 6.8 44.3
08:15 1023 30.21 852 25.16 18.2 64.8 48 7.2 45
08:20 1023 30.21 852 25.16 18.4 65.2 47 7.2 44.9
08:25 1023 30.21 852 25.16 18.7 65.6 47 7.4 45.3
08:30 1023 30.21 852 25.16 19.1 66.3 48 8 46.5
08:35 1023 30.21 852 25.16 18.8 65.8 48 7.7 45.8
08:40 1023 30.21 852 25.16 19 66.3 46 7.4 45.4
08:45 1023 30.21 852 25.16 19.6 67.3 44 7.3 45.2
08:50 1023 30.21 852 25.16 19.5 67.1 45 7.5 45.5
08:55 1023 30.21 852 25.16 20.1 68.1 42 6.9 44.3
09:00 1023 30.21 852 25.16 20.6 69.2 42 7.4 45.3
09:05 1023 30.21 852 25.16 19.8 67.7 46 7.9 46.3
09:10 1023 30.21 852 25.16 19.8 67.7 45 7.7 45.9
09:15 1023 30.21 852 25.16 19.5 67.1 43 6.9 44.4
09:20 1023 30.21 852 25.16 19.8 67.7 42 6.5 43.8
09:25 1023 30.21 852 25.16 20.9 69.7 40 7 44.7
09:30 1023 30.21 852 25.16 21.6 70.8 38 6.7 44
09:35 1023 30.21 852 25.16 21.4 70.6 40 7.3 45.2
09:40 1023 30.21 852 25.16 20.9 69.7 39 6.7 44.1
09:45 1023 30.21 852 25.16 21 69.9 38 6.4 43.5
09:50 1023 30.21 852 25.16 21 69.8 41 7.3 45.1
09:55 1023 30.21 852 25.16 20.9 69.6 38 6.2 43.2
10:00 1023 30.21 852 25.16 20.8 69.5 38 6.2 43.2
10:05 1023 30.21 852 25.16 21.2 70.2 38 6.7 44.1
10:10 1023 30.21 852 25.16 21.8 71.3 38 6.9 44.5
10:15 1023 30.21 852 25.16 21.9 71.5 36 6.5 43.7
10:20 1023 30.21 852 25.16 22.5 72.5 36 6.7 44.1
10:25 1023 30.21 852 25.16 22.5 72.5 36 6.8 44.2
10:30 1023 30.21 852 25.16 22.9 73.3 34 6.3 43.3
10:35 1023 30.21 852 25.16 23.2 73.7 32 6 42.8
10:40 1023 30.21 852 25.16 22.7 72.8 34 6.1 43
10:45 1023 30.21 852 25.16 23.2 73.7 32 5.9 42.6
10:50 1023 30.21 852 25.16 23.5 74.2 33 6.3 43.4
10:55 1023 30.21 852 25.16 23.7 74.7 32 6.5 43.6
11:00 1023 30.21 852 25.16 23.4 74.2 32 6.1 43
11:05 1023 30.21 852 25.16 23.8 74.8 32 6.4 43.6
11:10 1023 30.21 852 25.16 23.7 74.6 33 6.9 44.4
11:15 1023 30.21 852 25.16 23 73.4 33 6.2 43.1
11:20 1023 30.21 852 25.16 23.2 73.7 33 6.1 43
11:25 1023 30.21 852 25.16 23.8 74.8 33 6.6 43.9
11:30 1023 30.21 852 25.16 23.4 74.1 33 6.3 43.3
11:35 1023 30.21 852 25.16 23.4 74 32 5.8 42.4
11:40 1023 30.21 852 25.16 23.7 74.7 32 6.4 43.5
11:45 1023 30.21 852 25.16 23.8 74.8 32 6.4 43.5
11:50 1023 30.21 852 25.16 23.4 74 33 6.4 43.5
11:55 1022 30.18 852 25.16 23.9 75 32 6.2 43.2
12:00 1022 30.18 852 25.16 24.3 75.7 31 6.4 43.4
12:05 1022 30.18 852 25.16 24.4 75.9 32 6.8 44.3
12:10 1022 30.18 852 25.16 25 77 30 6.5 43.7
12:15 1022 30.18 851 25.13 24.8 76.6 30 6.4 43.5
12:20 1022 30.18 851 25.13 24.6 76.3 31 6.8 44.3
12:25 1022 30.18 851 25.13 24.7 76.5 32 6.9 44.5
12:30 1022 30.18 851 25.13 24.7 76.4 30 6.2 43.1
12:35 1022 30.18 851 25.13 25.1 77.1 30 6.6 43.8
12:40 1022 30.18 851 25.13 25.1 77.1 30 6.7 44.1
12:45 1022 30.18 851 25.13 25.1 77.2 30 6.5 43.7
12:50 1022 30.18 851 25.13 25.3 77.5 30 6.6 44
12:55 1022 30.18 851 25.13 25 76.9 30 6.5 43.7
13:00 1022 30.18 851 25.13 24.8 76.6 31 6.7 44.1
13:05 1022 30.18 851 25.13 25.3 77.5 30 6.5 43.7
13:10 1022 30.18 851 25.13 25.3 77.5 30 6.7 44
13:15 1022 30.18 851 25.13 25.3 77.5 31 7.4 45.3
13:20 1022 30.18 851 25.13 24.8 76.6 29 5.9 42.6
13:25 1022 30.18 851 25.13 26.1 79 28 6.4 43.5
13:30 1022 30.18 851 25.13 27 80.7 27 7 44.5
13:35 1022 30.18 851 25.13 27 80.5 27 6.6 43.9
13:40 1022 30.18 851 25.13 26.6 80 27 6.5 43.7
13:45 1022 30.18 851 25.13 26.7 80.1 27 6.3 43.3
13:50 1022 30.18 851 25.13 26.3 79.3 27 6 42.9
13:55 1022 30.18 851 25.13 26.4 79.4 27 6.1 42.9
14:00 1022 30.18 851 25.13 26.2 79.1 28 6.5 43.7
14:05 1022 30.18 851 25.13 26.3 79.4 26 5.7 42.3
14:10 1022 30.18 851 25.13 26.4 79.4 26 5.8 42.4
14:15 1022 30.18 851 25.13 26.8 80.2 26 6.1 43
14:20 1022 30.18 851 25.13 27.3 81.1 25 5.7 42.2
14:25 1022 30.18 851 25.13 27.3 81.2 24 5 41.1
14:30 1022 30.18 851 25.13 27.3 81.2 25 5.7 42.2
14:35 1022 30.18 851 25.13 27.2 81 24 5.1 41.1
14:40 1021 30.15 851 25.13 27.6 81.6 23 5 41.1
14:45 1021 30.15 851 25.13 27.5 81.5 24 5.3 41.5
14:50 1021 30.15 851 25.13 27.4 81.3 24 5.2 41.4
14:55 1021 30.15 851 25.13 27.9 82.2 22 4.7 40.5
15:00 1021 30.15 851 25.13 27.6 81.7 23 4.9 40.8
15:05 1021 30.15 851 25.13 27.7 81.8 22 4.6 40.3
15:10 1021 30.15 851 25.13 27.5 81.5 24 5.2 41.4
15:15 1021 30.15 850 25.1 27.1 80.7 24 5.1 41.2
15:20 1021 30.15 850 25.1 27.2 80.9 23 4.8 40.7
15:25 1021 30.15 850 25.1 27.4 81.2 23 4.9 40.8
15:30 1021 30.15 850 25.1 27.3 81.1 23 4.8 40.7
15:35 1021 30.15 850 25.1 27.3 81.1 23 4.3 39.8
15:40 1021 30.15 850 25.1 27.8 82 23 5.1 41.1
15:45 1021 30.15 850 25.1 27.5 81.4 22 4.4 39.9
15:50 1021 30.15 850 25.1 27.3 81.1 22 4.1 39.4
15:55 1021 30.15 850 25.1 27.2 80.9 23 4.5 40.1
16:00 1021 30.15 850 25.1 27.1 80.8 23 4.6 40.3
16:05 1021 30.15 850 25.1 27.1 80.7 24 5.1 41.1
16:10 1021 30.15 850 25.1 27.1 80.7 23 4.2 39.5
16:15 1021 30.15 850 25.1 27.2 80.9 23 4.5 40.1
16:20 1021 30.15 850 25.1 27.3 81.1 23 4.4 39.9
16:25 1021 30.15 850 25.1 27.5 81.4 23 4.5 40.2
16:30 1021 30.15 850 25.1 27.6 81.6 22 4.4 39.9
16:35 1021 30.15 850 25.1 27.4 81.2 23 4.8 40.6
16:40 1021 30.15 850 25.1 27.3 81.2 22 4.3 39.7
16:45 1021 30.15 850 25.1 27.1 80.8 22 4.1 39.5
16:50 1021 30.15 850 25.1 26.9 80.5 23 4.3 39.8
16:55 1021 30.15 850 25.1 26.7 80.1 24 4.7 40.5
17:00 1021 30.15 850 25.1 26.7 80.1 24 4.6 40.2
17:05 1021 30.15 850 25.1 26.8 80.3 24 4.8 40.6
17:10 1021 30.15 850 25.1 26.7 80 24 4.8 40.7
17:15 1021 30.15 850 25.1 26.3 79.3 25 4.8 40.7
17:20 1021 30.15 850 25.1 26.1 78.9 25 4.8 40.7
17:25 1021 30.15 850 25.1 25.9 78.7 26 5 41
17:30 1021 30.15 850 25.1 25.9 78.6 25 4.7 40.5
17:35 1021 30.15 850 25.1 25.7 78.2 26 4.9 40.9
17:40 1021 30.15 850 25.1 25.7 78.2 26 4.8 40.6
17:45 1021 30.15 850 25.1 25.5 77.9 26 4.7 40.5
17:50 1021 30.15 850 25.1 25.2 77.3 26 4.8 40.6
17:55 1021 30.15 850 25.1 25.1 77.2 27 5.1 41.1
18:00 1020 30.12 850 25.1 25.1 77.1 27 4.8 40.7
18:05 1020 30.12 850 25.1 25 77.1 27 4.9 40.8
18:10 1020 30.12 850 25.1 25 77 27 4.9 40.8
18:15 1020 30.12 850 25.1 25 76.9 27 4.9 40.8
18:20 1020 30.12 850 25.1 25 77 27 4.7 40.5
18:25 1020 30.12 850 25.1 25 76.9 27 5.1 41.1
18:30 1020 30.12 850 25.1 24.9 76.8 27 5 41
18:35 1021 30.15 850 25.1 24.9 76.8 28 5.6 42
18:40 1021 30.15 850 25.1 24.8 76.6 28 5 41.1
18:45 1021 30.15 850 25.1 24.6 76.3 30 5.9 42.6
18:50 1021 30.15 850 25.1 24.6 76.2 28 5.2 41.4
18:55 1021 30.15 850 25.1 24.4 76 29 5.3 41.6
19:00 1021 30.15 850 25.1 24.3 75.7 29 5.4 41.7
19:05 1021 30.15 850 25.1 24.2 75.5 31 6.3 43.3
19:10 1021 30.15 850 25.1 23.6 74.4 33 6.4 43.5
19:15 1021 30.15 850 25.1 23.2 73.7 33 6.3 43.4
19:20 1021 30.15 850 25.1 23 73.5 33 6.3 43.4
19:25 1021 30.15 850 25.1 23 73.4 33 6.2 43.1
19:30 1021 30.15 850 25.1 22.9 73.2 34 6.3 43.3
19:35 1021 30.15 850 25.1 22.8 73 33 5.9 42.6
19:40 1021 30.15 850 25.1 22.7 72.8 33 5.7 42.2
19:45 1021 30.15 850 25.1 22.6 72.6 34 6.3 43.4
19:50 1021 30.15 850 25.1 22.5 72.5 32 5.3 41.6
19:55 1021 30.15 851 25.13 22.4 72.4 32 5.2 41.4
20:00 1021 30.15 851 25.13 22.4 72.2 34 6.1 43
20:05 1021 30.15 851 25.13 22.2 72 36 6.7 44.1
20:10 1021 30.15 851 25.13 22.1 71.7 33 5.3 41.6
20:15 1022 30.18 851 25.13 21.9 71.5 34 5.5 41.8
20:20 1022 30.18 851 25.13 21.8 71.2 35 5.9 42.7
20:25 1022 30.18 851 25.13 21.1 70 42 7.7 45.9
20:30 1022 30.18 851 25.13 20 68 48 8.7 47.7
20:35 1022 30.18 851 25.13 19.3 66.8 47 7.9 46.3
20:40 1022 30.18 851 25.13 19 66.3 46 7.4 45.3
20:45 1022 30.18 851 25.13 18.9 66 46 7 44.7
20:50 1022 30.18 851 25.13 18.9 66 48 7.8 46
20:55 1022 30.18 851 25.13 18.6 65.5 46 7 44.5
21:00 1022 30.18 851 25.13 18.3 65 47 6.9 44.4
21:05 1022 30.18 851 25.13 18.1 64.6 48 7.1 44.7
21:10 1022 30.18 851 25.13 17.9 64.2 48 6.9 44.4
21:15 1022 30.18 851 25.13 17.8 64 47 6.6 43.9
21:20 1022 30.18 851 25.13 17.9 64.2 49 7.2 44.9
21:25 1022 30.18 851 25.13 17.9 64.2 48 6.9 44.4
21:30 1022 30.18 851 25.13 17.6 63.7 49 7 44.6
21:35 1022 30.18 851 25.13 17.1 62.7 52 7.2 45
21:40 1022 30.18 851 25.13 16.6 62 52 6.9 44.5
21:45 1022 30.18 851 25.13 16.6 61.8 52 6.9 44.4
21:50 1022 30.18 851 25.13 16.7 62.1 54 7.5 45.5
21:55 1022 30.18 851 25.13 16.9 62.4 56 8 46.4
22:00 1022 30.18 851 25.13 17.1 62.7 51 6.9 44.4
22:05 1022 30.18 851 25.13 16.9 62.5 50 6.6 43.8
22:10 1022 30.18 851 25.13 16.8 62.3 50 6.4 43.5
22:15 1022 30.18 851 25.13 16.8 62.2 50 6.5 43.7
22:20 1022 30.18 851 25.13 16.7 62 50 6.4 43.5
22:25 1022 30.18 851 25.13 16.5 61.8 54 7.2 45
22:30 1022 30.18 851 25.13 16.5 61.6 53 7 44.6
22:35 1022 30.18 851 25.13 16.1 60.9 55 7.1 44.8
22:40 1022 30.18 851 25.13 15.6 60.1 53 6.2 43.2
22:45 1022 30.18 851 25.13 16.1 60.9 51 6.1 42.9
22:50 1022 30.18 851 25.13 16.3 61.3 51 6.3 43.3
22:55 1022 30.18 851 25.13 16.1 60.9 51 6.1 42.9
23:00 1022 30.18 851 25.13 16 60.8 51 6.1 42.9
23:05 1022 30.18 852 25.16 15.9 60.7 52 6.1 42.9
23:10 1022 30.18 852 25.16 15.9 60.5 51 5.9 42.7
23:15 1022 30.18 852 25.16 15.8 60.5 51 5.9 42.6
23:20 1022 30.18 852 25.16 15.9 60.6 50 5.6 42.1
23:25 1022 30.18 852 25.16 16.2 61.1 49 5.5 41.9
23:30 1022 30.18 852 25.16 16.2 61.2 49 5.7 42.2
23:35 1022 30.18 852 25.16 15.9 60.6 51 5.8 42.5
23:40 1022 30.18 852 25.16 15.6 60.1 51 5.6 42.1
23:45 1022 30.18 852 25.16 15.6 60.2 51 5.6 42.1
23:50 1022 30.18 852 25.16 15.6 60.2 51 5.6 42.1
23:55 1022 30.18 852 25.16 15.7 60.3 50 5.5 41.9
24:00 1022 30.18 852 25.16 15.8 60.4 50 5.4 41.8